Blodgett Mills, New York
Current Conditions -  °F | °C
As of 4:55 PM on Saturday 25 Oct 2014 (Local Time) from KN03 Reporting Station
Overcast Overcast  
Wind Chill: 63°   Ceiling: 6000
Heat Index: 63°   Visibility: 10mi
Dew Point: 45°   Wind: 6mph
Humidity: 52%   Direction: 230°SW
Pressure: 29.59"   Gusts: NA
Location:  42.57°N, 76.13°W
Report Text: KN03 252055Z AUTO 23005KT 10SM BKN060 BKN075 OVC085 17/07 A2959 RMK AO2
Loading
Personal Weather Stations






























Interactive Weather Map New forecast layout! Learn more

10-Day Weather Forecast

Advertisements
Track Severe Weather on mobile